Time;durP1;ratioP1;P1;durP2;ratioP2;P2;SDS_P1;SDS_P2;PMS_P1;PMS_P2;Temp;Humidity;BMP_temperature;BMP_pressure;BME280_temperature;BME280_humidity;BME280_pressure;Samples;Min_cycle;Max_cycle;Signal;HPM_P1;HPM_P2
2022/03/28 00:00:19;;;;;;;22.13;11.10;;;8.40;71.80;;;;;;5071172;28;20302;-70
2022/03/28 00:02:44;;;;;;;19.03;10.17;;;8.30;73.20;;;;;;5072132;28;20201;-72
2022/03/28 00:05:14;;;;;;;23.20;10.93;;;8.20;74.50;;;;;;5071803;28;20984;-70
2022/03/28 00:07:40;;;;;;;20.77;10.03;;;8.20;73.00;;;;;;5070359;28;20183;-70
2022/03/28 00:10:07;;;;;;;18.63;9.37;;;8.10;75.20;;;;;;5071976;28;20452;-70
2022/03/28 00:12:34;;;;;;;25.17;11.20;;;8.10;74.90;;;;;;5070389;28;20463;-70
2022/03/28 00:15:01;;;;;;;23.77;10.73;;;8.10;75.60;;;;;;5071525;28;20418;-70
2022/03/28 00:17:27;;;;;;;19.23;9.40;;;8.10;75.50;;;;;;5071552;28;20422;-70
2022/03/28 00:19:53;;;;;;;17.13;9.90;;;8.10;76.90;;;;;;5071541;28;20433;-70
2022/03/28 00:22:18;;;;;;;21.53;10.63;;;8.00;76.50;;;;;;5071614;28;20777;-70
2022/03/28 00:24:44;;;;;;;19.50;10.30;;;8.00;76.70;;;;;;5071531;28;20215;-70
2022/03/28 00:27:09;;;;;;;30.23;12.17;;;7.90;77.40;;;;;;5071437;28;20531;-71
2022/03/28 00:29:35;;;;;;;17.40;10.57;;;7.90;76.60;;;;;;5071409;28;20290;-71
2022/03/28 00:32:02;;;;;;;23.63;11.17;;;7.80;78.30;;;;;;5070440;28;20225;-71
2022/03/28 00:34:27;;;;;;;18.70;9.40;;;7.70;79.00;;;;;;5072207;28;20188;-71
2022/03/28 00:36:53;;;;;;;22.23;11.70;;;7.60;79.70;;;;;;5070160;28;20425;-71
2022/03/28 00:39:20;;;;;;;20.90;10.70;;;7.50;79.70;;;;;;5071088;28;20187;-71
2022/03/28 00:41:50;;;;;;;17.70;10.17;;;7.40;80.60;;;;;;5071246;28;20861;-71
2022/03/28 00:44:15;;;;;;;19.80;9.97;;;7.40;80.70;;;;;;5071160;28;20492;-71
2022/03/28 00:46:41;;;;;;;20.33;10.30;;;7.40;81.00;;;;;;5070990;28;20453;-71
2022/03/28 00:49:07;;;;;;;23.90;10.20;;;7.40;81.00;;;;;;5074967;28;20224;-71
2022/03/28 00:51:32;;;;;;;21.30;10.23;;;7.50;80.80;;;;;;5097367;28;20247;-71
2022/03/28 00:54:00;;;;;;;17.17;9.70;;;7.40;81.50;;;;;;5097630;28;20425;-70
2022/03/28 00:56:25;;;;;;;19.47;12.23;;;7.30;82.10;;;;;;5080535;28;20210;-70
2022/03/28 00:58:51;;;;;;;23.27;10.30;;;7.30;82.20;;;;;;5071678;28;20426;-71
2022/03/28 01:01:17;;;;;;;20.90;10.10;;;7.20;82.10;;;;;;5071641;28;20285;-71
2022/03/28 01:03:43;;;;;;;21.10;10.97;;;7.20;82.70;;;;;;5071391;28;20680;-71
2022/03/28 01:06:08;;;;;;;20.90;10.33;;;7.10;83.50;;;;;;5071216;28;20471;-71
2022/03/28 01:08:35;;;;;;;37.00;10.23;;;7.10;82.80;;;;;;5069997;28;20254;-73
2022/03/28 01:11:06;;;;;;;32.50;11.50;;;7.10;83.60;;;;;;5069644;28;20214;-73
2022/03/28 01:13:37;;;;;;;21.37;10.03;;;7.10;83.70;;;;;;5071376;28;20795;-73
2022/03/28 01:16:04;;;;;;;21.60;10.40;;;7.10;83.70;;;;;;5071171;28;20551;-73
2022/03/28 01:18:30;;;;;;;19.93;11.13;;;7.10;83.40;;;;;;5071301;28;20412;-73
2022/03/28 01:20:57;;;;;;;33.83;11.90;;;7.00;84.50;;;;;;5071454;28;20914;-73
2022/03/28 01:23:22;;;;;;;23.73;11.87;;;6.90;83.90;;;;;;5071100;28;20421;-72
2022/03/28 01:25:52;;;;;;;22.20;11.20;;;6.90;83.90;;;;;;5071178;28;20414;-72
2022/03/28 01:28:23;;;;;;;20.00;10.90;;;6.90;84.60;;;;;;5069713;28;20228;-72
2022/03/28 01:30:50;;;;;;;19.17;11.03;;;6.80;85.60;;;;;;5069353;28;20520;-72
2022/03/28 01:33:15;;;;;;;24.10;11.50;;;6.70;86.20;;;;;;5069311;28;20921;-71
2022/03/28 01:35:43;;;;;;;22.23;9.77;;;6.80;86.50;;;;;;5069390;28;20421;-72
2022/03/28 01:38:14;;;;;;;21.17;10.87;;;6.70;86.70;;;;;;5070822;28;20644;-72
2022/03/28 01:40:46;;;;;;;18.87;10.50;;;6.60;86.70;;;;;;5070671;28;20583;-72
2022/03/28 01:43:12;;;;;;;18.63;10.20;;;6.60;88.40;;;;;;5069043;28;20460;-74
2022/03/28 01:45:38;;;;;;;25.77;11.03;;;6.50;88.90;;;;;;5068924;28;20453;-73
2022/03/28 01:48:06;;;;;;;20.47;10.30;;;6.60;88.60;;;;;;5070188;28;20407;-73
2022/03/28 01:50:32;;;;;;;29.57;10.67;;;6.50;89.70;;;;;;5069971;28;20580;-72
2022/03/28 01:52:58;;;;;;;20.07;12.07;;;6.50;90.00;;;;;;5070012;28;20500;-73
2022/03/28 01:55:24;;;;;;;23.20;12.10;;;6.40;90.80;;;;;;5068163;28;20187;-73
2022/03/28 01:57:50;;;;;;;29.73;11.70;;;6.50;90.50;;;;;;5069695;28;20178;-73
2022/03/28 02:00:17;;;;;;;24.50;11.03;;;6.40;90.00;;;;;;5051508;28;20445;-73
2022/03/28 02:02:45;;;;;;;23.63;12.00;;;6.50;90.10;;;;;;5069446;28;20179;-73
2022/03/28 02:05:12;;;;;;;24.50;10.00;;;6.40;90.20;;;;;;5067693;28;20465;-72
2022/03/28 02:07:42;;;;;;;21.77;11.00;;;6.50;90.10;;;;;;5069413;28;20424;-72
2022/03/28 02:10:10;;;;;;;24.17;10.93;;;6.50;90.00;;;;;;5069323;28;20510;-72
2022/03/28 02:12:37;;;;;;;23.60;11.70;;;6.40;90.10;;;;;;5069095;28;20430;-71
2022/03/28 02:15:04;;;;;;;18.47;11.00;;;6.30;90.10;;;;;;5069355;28;20456;-72
2022/03/28 02:17:31;;;;;;;24.30;11.27;;;6.30;90.50;;;;;;5068593;28;20757;-73
2022/03/28 02:19:57;;;;;;;20.50;10.70;;;6.20;90.40;;;;;;5069059;28;20816;-74
2022/03/28 02:22:23;;;;;;;31.20;11.10;;;6.10;90.40;;;;;;5050876;28;20464;-72
2022/03/28 02:24:49;;;;;;;21.13;10.87;;;6.20;90.40;;;;;;5069028;28;20588;-71
2022/03/28 02:27:15;;;;;;;24.37;11.73;;;6.10;90.80;;;;;;5068910;28;20409;-72
2022/03/28 02:29:40;;;;;;;24.07;11.60;;;6.10;91.20;;;;;;5068960;28;20183;-71
2022/03/28 02:32:07;;;;;;;24.50;11.40;;;6.00;91.30;;;;;;5069024;28;20770;-71
2022/03/28 02:34:32;;;;;;;26.20;12.13;;;6.00;91.40;;;;;;5068934;28;20179;-71
2022/03/28 02:36:58;;;;;;;22.90;11.73;;;5.90;91.40;;;;;;5068923;28;20424;-71
2022/03/28 02:39:25;;;;;;;18.83;10.50;;;5.90;91.50;;;;;;5067393;28;20213;-71
2022/03/28 02:41:51;;;;;;;18.23;9.73;;;5.90;91.50;;;;;;5069055;28;20529;-71
2022/03/28 02:44:17;;;;;;;20.47;10.60;;;5.90;91.90;;;;;;5069128;28;20489;-71
2022/03/28 02:46:44;;;;;;;18.00;10.60;;;5.90;91.70;;;;;;5069446;28;20975;-71
2022/03/28 02:49:09;;;;;;;25.53;10.43;;;5.80;91.50;;;;;;5069196;28;20421;-71
2022/03/28 02:51:36;;;;;;;22.40;9.73;;;5.80;91.20;;;;;;5068198;28;20940;-71
2022/03/28 02:54:01;;;;;;;22.70;10.80;;;5.80;91.30;;;;;;5068108;28;20187;-71
2022/03/28 02:56:27;;;;;;;22.20;10.30;;;5.80;91.20;;;;;;5069371;28;20428;-74
2022/03/28 02:58:53;;;;;;;22.87;10.90;;;5.90;91.20;;;;;;5068107;28;20277;-71
2022/03/28 03:01:18;;;;;;;20.50;11.40;;;5.90;91.40;;;;;;5069314;28;20284;-72
2022/03/28 03:03:44;;;;;;;28.50;10.90;;;5.80;91.50;;;;;;5069335;28;20210;-72
2022/03/28 03:06:10;;;;;;;28.43;11.10;;;5.80;91.80;;;;;;5069261;28;20224;-72
2022/03/28 03:08:35;;;;;;;16.77;10.20;;;5.80;92.10;;;;;;5067701;28;20258;-74
2022/03/28 03:11:01;;;;;;;21.33;10.40;;;5.70;92.30;;;;;;5068957;28;20233;-72
2022/03/28 03:13:26;;;;;;;24.87;10.90;;;5.70;92.00;;;;;;5067668;28;20243;-72
2022/03/28 03:15:52;;;;;;;22.70;12.53;;;5.70;92.70;;;;;;5067403;28;20183;-72
2022/03/28 03:18:18;;;;;;;21.37;11.40;;;5.70;92.80;;;;;;5068724;28;20186;-72
2022/03/28 03:20:44;;;;;;;23.70;11.37;;;5.70;93.10;;;;;;5066999;28;20281;-73
2022/03/28 03:23:10;;;;;;;21.40;10.60;;;5.60;93.40;;;;;;5068425;28;20415;-72
2022/03/28 03:25:36;;;;;;;26.27;10.27;;;5.70;93.40;;;;;;5068275;28;20217;-72
2022/03/28 03:28:03;;;;;;;21.50;10.70;;;5.50;93.50;;;;;;5067625;28;20191;-73
2022/03/28 03:30:29;;;;;;;17.37;10.00;;;5.50;93.40;;;;;;5072448;28;20202;-73
2022/03/28 03:32:55;;;;;;;26.03;11.73;;;5.40;93.30;;;;;;5072451;28;20469;-73
2022/03/28 03:35:21;;;;;;;24.33;11.20;;;5.40;93.20;;;;;;5072142;28;20898;-73
2022/03/28 03:37:46;;;;;;;29.00;11.20;;;5.40;93.50;;;;;;5072241;28;20481;-73
2022/03/28 03:40:12;;;;;;;19.00;10.50;;;5.30;93.80;;;;;;5071964;28;20452;-72
2022/03/28 03:42:39;;;;;;;23.20;11.10;;;5.40;93.90;;;;;;5054007;28;20794;-73
2022/03/28 03:45:05;;;;;;;18.77;9.73;;;5.40;93.60;;;;;;5071917;28;20547;-75
2022/03/28 03:47:31;;;;;;;19.43;11.70;;;5.40;93.50;;;;;;5072030;28;20417;-73
2022/03/28 03:49:57;;;;;;;23.60;11.60;;;5.40;93.70;;;;;;5071877;28;20443;-72
2022/03/28 03:52:23;;;;;;;24.57;11.10;;;5.30;93.70;;;;;;5070366;28;20418;-72
2022/03/28 03:54:48;;;;;;;22.87;11.80;;;5.30;94.00;;;;;;5071700;28;20431;-72
2022/03/28 03:57:14;;;;;;;18.20;10.20;;;5.20;94.10;;;;;;5071692;28;20198;-73
2022/03/28 03:59:40;;;;;;;22.60;10.97;;;5.20;94.10;;;;;;5069986;28;20211;-75
2022/03/28 04:02:06;;;;;;;21.70;11.40;;;5.20;94.40;;;;;;5071595;28;20194;-75
2022/03/28 04:04:32;;;;;;;25.10;10.97;;;5.20;94.60;;;;;;5070134;28;20465;-74
2022/03/28 04:06:57;;;;;;;18.27;10.20;;;5.20;94.60;;;;;;5070176;28;20183;-74
2022/03/28 04:09:23;;;;;;;22.20;11.20;;;5.20;94.70;;;;;;5071447;28;20284;-73
2022/03/28 04:11:49;;;;;;;20.00;10.80;;;5.20;95.10;;;;;;5071233;28;20205;-73
2022/03/28 04:14:15;;;;;;;25.27;11.30;;;5.20;95.10;;;;;;5071252;28;20190;-74
2022/03/28 04:16:42;;;;;;;28.37;11.80;;;5.30;95.30;;;;;;5071324;28;20417;-74
2022/03/28 04:19:08;;;;;;;25.67;10.77;;;5.20;95.40;;;;;;5070045;28;20447;-73
2022/03/28 04:21:34;;;;;;;17.77;10.37;;;5.30;95.60;;;;;;5071176;28;21248;-74
2022/03/28 04:24:00;;;;;;;20.30;10.50;;;5.30;96.00;;;;;;5071131;28;20470;-74
2022/03/28 04:26:25;;;;;;;18.87;11.07;;;5.30;95.90;;;;;;5069495;28;20187;-75
2022/03/28 04:28:51;;;;;;;19.50;11.27;;;5.30;95.80;;;;;;5071208;28;20582;-75
2022/03/28 04:31:17;;;;;;;24.20;11.67;;;5.20;96.30;;;;;;5069524;28;20210;-75
2022/03/28 04:33:42;;;;;;;24.57;11.27;;;5.30;96.70;;;;;;5071128;28;20200;-76
2022/03/28 04:36:08;;;;;;;22.80;11.30;;;5.20;96.60;;;;;;5070951;28;20281;-75
2022/03/28 04:38:34;;;;;;;23.00;10.70;;;5.20;96.80;;;;;;5069433;28;20227;-76
2022/03/28 04:41:00;;;;;;;21.10;11.80;;;5.20;96.90;;;;;;5070042;28;20222;-76
2022/03/28 04:43:25;;;;;;;24.50;12.00;;;5.10;97.00;;;;;;5069566;28;20435;-76
2022/03/28 04:45:51;;;;;;;20.87;11.30;;;5.20;97.20;;;;;;5070973;28;20175;-76
2022/03/28 04:48:17;;;;;;;21.70;11.10;;;5.10;97.00;;;;;;5069959;28;20612;-75
2022/03/28 04:50:42;;;;;;;32.03;13.40;;;5.10;97.20;;;;;;5069250;28;20207;-76
2022/03/28 04:53:08;;;;;;;28.07;12.50;;;5.10;97.60;;;;;;5067879;28;20221;-76
2022/03/28 04:55:35;;;;;;;21.80;11.37;;;5.00;97.60;;;;;;5067829;28;20179;-76
2022/03/28 04:58:01;;;;;;;18.80;10.87;;;4.90;97.40;;;;;;5067752;28;20519;-76
2022/03/28 05:00:26;;;;;;;23.30;12.50;;;4.90;97.60;;;;;;5069117;28;21140;-76
2022/03/28 05:02:52;;;;;;;25.57;11.70;;;4.90;97.70;;;;;;5067844;28;20577;-76
2022/03/28 05:05:18;;;;;;;24.90;10.40;;;4.90;97.90;;;;;;5067580;28;20213;-76
2022/03/28 05:07:44;;;;;;;25.23;11.80;;;4.90;97.80;;;;;;5050917;28;20533;-76
2022/03/28 05:10:09;;;;;;;21.47;10.30;;;4.90;97.90;;;;;;5082370;28;20222;-76
2022/03/28 05:12:35;;;;;;;20.63;11.73;;;4.80;97.90;;;;;;5096046;28;20187;-75
2022/03/28 05:15:02;;;;;;;29.50;12.00;;;4.80;97.90;;;;;;5095971;28;20549;-76
2022/03/28 05:17:29;;;;;;;28.40;12.27;;;4.80;98.00;;;;;;5095869;28;20178;-75
2022/03/28 05:19:55;;;;;;;59.37;13.37;;;4.70;98.20;;;;;;5095926;28;20455;-76
2022/03/28 05:22:22;;;;;;;80.45;13.77;;;4.70;98.70;;;;;;5082541;28;20417;-76
2022/03/28 05:24:50;;;;;;;48.20;15.40;;;4.70;98.70;;;;;;5070506;28;20638;-76
2022/03/28 05:27:16;;;;;;;96.80;20.00;;;4.80;98.60;;;;;;5067504;28;20795;-76
2022/03/28 05:29:42;;;;;;;132.87;18.30;;;4.70;99.00;;;;;;5067016;28;20458;-76
2022/03/28 05:32:08;;;;;;;99.43;16.70;;;4.70;98.80;;;;;;5068733;28;20964;-76
2022/03/28 05:34:34;;;;;;;279.50;27.00;;;4.80;98.60;;;;;;5067186;28;20795;-76
2022/03/28 05:37:11;;;;;;;534.43;53.50;;;4.80;98.70;;;;;;5066954;28;20428;-76
2022/03/28 05:39:37;;;;;;;1736.90;207.37;;;4.80;98.90;;;;;;5066978;28;20230;-76
2022/03/28 05:42:04;;;;;;;901.50;97.90;;;4.80;98.90;;;;;;5068151;28;20451;-76
2022/03/28 05:44:30;;;;;;;401.10;37.97;;;4.80;98.90;;;;;;5068249;28;20463;-76
2022/03/28 05:46:56;;;;;;;289.60;26.13;;;4.80;98.90;;;;;;5068245;28;20422;-75
2022/03/28 05:49:25;;;;;;;284.13;25.73;;;4.80;99.00;;;;;;5066607;28;20441;-76
2022/03/28 05:51:52;;;;;;;941.00;102.63;;;4.90;99.20;;;;;;5065559;28;20442;-76
2022/03/28 05:54:18;;;;;;;293.33;31.90;;;5.10;99.30;;;;;;5066679;28;20769;-76
2022/03/28 05:56:44;;;;;;;220.77;24.90;;;5.00;99.10;;;;;;5066374;28;20474;-76
2022/03/28 05:59:10;;;;;;;109.67;16.63;;;5.20;99.10;;;;;;5067781;28;20426;-76
2022/03/28 06:01:36;;;;;;;62.70;15.23;;;5.30;99.10;;;;;;5066283;28;20506;-76
2022/03/28 06:04:04;;;;;;;57.27;16.90;;;5.40;98.80;;;;;;5066275;28;20296;-76
2022/03/28 06:06:30;;;;;;;37.73;13.60;;;5.50;98.90;;;;;;5066108;28;20834;-76
2022/03/28 06:08:56;;;;;;;36.77;13.60;;;5.70;98.80;;;;;;5067583;28;20433;-76
2022/03/28 06:11:22;;;;;;;25.97;11.63;;;6.00;98.60;;;;;;5049232;28;20461;-76
2022/03/28 06:13:48;;;;;;;33.77;13.70;;;6.50;97.10;;;;;;5066042;28;20186;-76
2022/03/28 06:16:13;;;;;;;20.97;11.10;;;7.30;96.20;;;;;;5067889;28;20198;-76
2022/03/28 06:18:39;;;;;;;29.17;13.20;;;8.10;93.80;;;;;;5066316;28;20430;-76
2022/03/28 06:21:07;;;;;;;25.00;13.30;;;8.70;92.50;;;;;;5067777;28;20212;-76
2022/03/28 06:23:36;;;;;;;76.53;18.10;;;9.20;91.40;;;;;;5066265;28;20425;-76
2022/03/28 06:26:03;;;;;;;28.33;13.70;;;9.50;90.60;;;;;;5067912;28;20785;-76
2022/03/28 06:28:29;;;;;;;23.43;12.43;;;9.90;87.40;;;;;;5067984;28;20414;-76
2022/03/28 06:30:55;;;;;;;29.20;13.43;;;10.20;83.00;;;;;;5067653;28;20433;-76
2022/03/28 06:33:21;;;;;;;22.57;12.23;;;10.50;81.00;;;;;;5067833;28;20197;-76
2022/03/28 06:35:47;;;;;;;28.37;12.40;;;10.80;79.90;;;;;;5066528;28;20487;-75
2022/03/28 06:38:13;;;;;;;23.80;12.67;;;11.00;77.70;;;;;;5067710;28;20183;-75
2022/03/28 06:40:39;;;;;;;34.07;13.27;;;11.30;76.40;;;;;;5067488;28;20447;-76
2022/03/28 06:43:05;;;;;;;21.97;12.20;;;11.40;74.30;;;;;;5067583;28;20183;-76
2022/03/28 06:45:31;;;;;;;23.40;12.43;;;11.50;73.40;;;;;;5067456;28;20467;-76
2022/03/28 06:47:57;;;;;;;24.03;11.80;;;11.60;72.80;;;;;;5067923;28;20410;-76
2022/03/28 06:50:25;;;;;;;25.63;12.70;;;11.90;72.30;;;;;;5066663;28;20441;-75
2022/03/28 06:52:52;;;;;;;22.57;12.50;;;11.90;70.90;;;;;;5068295;28;20168;-75
2022/03/28 06:55:19;;;;;;;23.10;14.00;;;12.00;72.70;;;;;;5068106;28;20429;-76
2022/03/28 06:57:45;;;;;;;31.03;12.43;;;12.10;72.00;;;;;;5067909;28;20414;-76
2022/03/28 07:00:11;;;;;;;22.60;12.50;;;12.20;68.90;;;;;;5067860;28;20446;-76
2022/03/28 07:02:37;;;;;;;20.70;11.47;;;12.10;68.80;;;;;;5067949;28;20269;-76
2022/03/28 07:05:08;;;;;;;28.50;13.20;;;12.30;69.10;;;;;;5066136;28;20461;-76
2022/03/28 07:07:46;;;;;;;22.10;12.47;;;12.20;67.40;;;;;;5067552;28;20410;-76
2022/03/28 07:10:14;;;;;;;29.33;13.93;;;12.10;68.80;;;;;;5067763;28;20434;-76
2022/03/28 07:12:40;;;;;;;27.33;12.67;;;12.10;67.70;;;;;;5067821;28;20525;-76
2022/03/28 07:15:07;;;;;;;26.70;12.83;;;12.20;67.20;;;;;;5067613;28;20428;-76
2022/03/28 07:17:57;;;;;;;25.73;14.07;;;12.40;67.20;;;;;;5067828;28;20783;-76
2022/03/28 07:20:25;;;;;;;32.53;14.73;;;12.60;68.60;;;;;;5065941;28;20451;-76
2022/03/28 07:22:52;;;;;;;36.57;15.17;;;12.90;66.80;;;;;;5067409;28;20424;-76
2022/03/28 07:25:19;;;;;;;35.70;15.57;;;13.20;65.90;;;;;;5066181;28;20474;-76
2022/03/28 07:27:44;;;;;;;26.43;13.80;;;13.50;65.90;;;;;;5067787;28;20581;-76
2022/03/28 07:30:11;;;;;;;31.60;13.33;;;13.80;64.50;;;;;;5067672;28;20544;-76
2022/03/28 07:32:38;;;;;;;27.60;14.27;;;13.80;63.90;;;;;;5067382;28;20500;-76
2022/03/28 07:35:04;;;;;;;33.60;13.70;;;14.10;64.90;;;;;;5067336;28;20427;-76
2022/03/28 07:37:30;;;;;;;23.10;13.57;;;14.20;64.80;;;;;;5065826;28;20927;-76
2022/03/28 07:39:57;;;;;;;25.40;14.20;;;14.30;65.20;;;;;;5067294;28;20978;-76
2022/03/28 07:42:22;;;;;;;27.30;14.97;;;14.00;62.70;;;;;;5065721;28;20436;-76
2022/03/28 07:44:48;;;;;;;27.43;14.20;;;14.10;64.20;;;;;;5065848;28;20485;-76
2022/03/28 07:47:14;;;;;;;28.03;14.27;;;14.30;64.90;;;;;;5065829;28;20186;-76
2022/03/28 07:49:40;;;;;;;27.30;14.00;;;14.50;63.30;;;;;;5067044;28;20462;-76
2022/03/28 07:52:08;;;;;;;28.03;15.03;;;14.90;63.40;;;;;;5066878;28;20186;-76
2022/03/28 07:54:34;;;;;;;27.80;15.27;;;14.80;64.00;;;;;;5065197;28;20199;-76
2022/03/28 07:56:59;;;;;;;25.90;14.97;;;14.90;63.00;;;;;;5066801;28;20425;-76
2022/03/28 07:59:25;;;;;;;26.50;14.93;;;15.10;62.50;;;;;;5066666;28;20885;-76
2022/03/28 08:01:54;;;;;;;31.37;15.10;;;15.40;61.20;;;;;;5066909;28;20432;-76
2022/03/28 08:04:19;;;;;;;26.50;14.70;;;15.40;58.60;;;;;;5065360;28;20237;-76
2022/03/28 08:06:45;;;;;;;25.73;16.00;;;15.60;59.20;;;;;;5066950;28;20921;-76
2022/03/28 08:09:10;;;;;;;32.93;16.67;;;15.50;59.20;;;;;;5066855;28;20244;-76
2022/03/28 08:11:36;;;;;;;27.70;14.43;;;15.40;59.70;;;;;;5065122;28;20303;-76
2022/03/28 08:14:03;;;;;;;24.60;14.70;;;15.50;59.60;;;;;;5066542;28;20260;-76
2022/03/28 08:16:30;;;;;;;32.90;14.73;;;15.60;59.20;;;;;;5068891;28;20656;-76
2022/03/28 08:18:55;;;;;;;22.43;14.00;;;15.80;57.40;;;;;;5070043;28;20443;-76
2022/03/28 08:21:21;;;;;;;32.17;15.30;;;16.30;58.00;;;;;;5070043;28;20519;-76
2022/03/28 08:23:47;;;;;;;32.20;16.73;;;16.30;58.40;;;;;;5069853;28;20217;-76
2022/03/28 08:26:13;;;;;;;29.23;16.40;;;16.50;57.30;;;;;;5068569;28;20434;-76
2022/03/28 08:28:39;;;;;;;28.33;14.90;;;16.60;57.10;;;;;;5069747;28;20291;-77
2022/03/28 08:31:05;;;;;;;29.90;16.37;;;16.70;57.50;;;;;;5051713;28;20206;-76
2022/03/28 08:33:31;;;;;;;30.83;15.70;;;16.70;56.40;;;;;;5068137;28;20483;-76
2022/03/28 08:35:57;;;;;;;38.87;16.27;;;16.90;56.30;;;;;;5069853;28;20898;-76
2022/03/28 08:38:23;;;;;;;25.27;15.67;;;17.10;56.60;;;;;;5069707;28;20483;-76
2022/03/28 08:40:49;;;;;;;29.00;16.03;;;17.30;57.50;;;;;;5067935;28;20228;-76
2022/03/28 08:43:22;;;;;;;33.30;16.17;;;17.50;58.00;;;;;;5069540;28;20255;-76
2022/03/28 08:45:51;;;;;;;32.27;15.50;;;17.90;57.30;;;;;;5069674;28;20462;-76
2022/03/28 08:48:18;;;;;;;30.40;15.90;;;18.00;57.50;;;;;;5067812;28;20415;-76
2022/03/28 08:50:46;;;;;;;29.63;15.80;;;18.50;57.60;;;;;;5067806;28;21058;-76
2022/03/28 08:53:13;;;;;;;39.87;17.87;;;18.80;57.60;;;;;;5069464;28;20522;-76
2022/03/28 08:55:44;;;;;;;27.87;15.70;;;18.80;54.60;;;;;;5069464;28;20447;-76
2022/03/28 08:58:11;;;;;;;26.27;15.73;;;19.20;55.50;;;;;;5067874;28;20472;-76
2022/03/28 09:00:37;;;;;;;27.10;16.07;;;19.60;52.60;;;;;;5069126;28;20903;-76
2022/03/28 09:03:04;;;;;;;31.40;14.57;;;19.70;53.10;;;;;;5069320;28;20428;-76
2022/03/28 09:05:33;;;;;;;33.00;17.00;;;20.00;53.70;;;;;;5067741;28;20479;-76
2022/03/28 09:08:00;;;;;;;29.77;17.93;;;20.30;52.60;;;;;;5069481;28;20418;-76
2022/03/28 09:10:28;;;;;;;27.73;16.00;;;20.70;51.70;;;;;;5069043;28;20440;-77
2022/03/28 09:13:00;;;;;;;27.80;16.20;;;20.90;50.00;;;;;;5069116;28;20454;-76
2022/03/28 09:15:40;;;;;;;30.17;15.20;;;21.20;49.50;;;;;;5069125;28;20406;-76
2022/03/28 09:18:07;;;;;;;26.83;15.73;;;21.50;50.60;;;;;;5069159;28;21225;-76
2022/03/28 09:20:36;;;;;;;26.07;15.70;;;21.70;49.60;;;;;;5070499;28;20453;-76
2022/03/28 09:23:49;;;;;;;32.07;16.53;;;21.90;49.80;;;;;;5070159;28;20866;-76
2022/03/28 09:26:21;;;;;;;24.37;16.87;;;22.00;49.20;;;;;;5067625;28;20443;-76
2022/03/28 09:28:58;;;;;;;23.20;15.07;;;22.40;47.70;;;;;;5070014;28;20439;-76
2022/03/28 09:31:33;;;;;;;34.20;15.57;;;22.50;48.40;;;;;;5069804;28;20425;-76
2022/03/28 09:34:06;;;;;;;28.63;15.50;;;22.90;46.90;;;;;;5090502;28;20407;-76
2022/03/28 09:36:45;;;;;;;26.83;16.57;;;23.00;46.40;;;;;;5090530;28;21255;-76
2022/03/28 09:39:16;;;;;;;27.33;17.67;;;23.00;45.50;;;;;;5069032;28;20414;-76
2022/03/28 09:42:03;;;;;;;38.50;16.50;;;23.10;45.80;;;;;;5068807;28;20428;-76
2022/03/28 09:44:39;;;;;;;31.20;16.00;;;23.20;45.50;;;;;;5067098;28;20469;-76
2022/03/28 09:47:13;;;;;;;28.97;17.17;;;23.90;43.40;;;;;;5068910;28;20421;-77
2022/03/28 09:49:44;;;;;;;24.73;14.83;;;24.00;42.00;;;;;;5068827;28;20440;-77
2022/03/28 09:52:20;;;;;;;25.73;17.10;;;24.10;43.10;;;;;;5069212;28;20516;-77
2022/03/28 09:54:51;;;;;;;22.73;15.57;;;24.30;41.90;;;;;;5069227;28;20418;-77
2022/03/28 09:57:24;;;;;;;31.90;17.67;;;24.40;41.70;;;;;;5068610;28;20422;-76
2022/03/28 09:59:51;;;;;;;30.00;17.97;;;24.60;39.10;;;;;;5068317;28;20452;-77
2022/03/28 10:02:23;;;;;;;28.20;16.50;;;24.90;38.90;;;;;;5069598;28;20419;-77
2022/03/28 10:04:51;;;;;;;26.30;17.23;;;25.10;38.60;;;;;;5068879;28;20868;-77
2022/03/28 10:07:18;;;;;;;33.33;17.17;;;24.90;36.30;;;;;;5068612;28;20492;-77
2022/03/28 10:09:44;;;;;;;27.23;18.10;;;25.30;35.60;;;;;;5068351;28;20430;-77
2022/03/28 10:12:10;;;;;;;26.90;18.17;;;25.20;33.00;;;;;;5068478;28;20454;-77
2022/03/28 10:14:37;;;;;;;28.60;18.67;;;25.20;32.60;;;;;;5066926;28;20440;-77
2022/03/28 10:17:04;;;;;;;25.63;17.80;;;25.40;33.30;;;;;;5068681;28;21213;-77
2022/03/28 10:19:33;;;;;;;26.43;16.20;;;25.60;32.00;;;;;;5050394;28;20465;-77
2022/03/28 10:22:02;;;;;;;24.13;16.73;;;25.70;33.60;;;;;;5068888;28;20433;-77
2022/03/28 10:24:30;;;;;;;28.30;15.83;;;25.70;32.70;;;;;;5068302;28;20957;-77
2022/03/28 10:26:58;;;;;;;26.00;16.60;;;26.40;32.20;;;;;;5066919;28;20431;-77
2022/03/28 10:29:38;;;;;;;28.47;17.07;;;26.40;29.60;;;;;;5066926;28;20498;-75
2022/03/28 10:32:17;;;;;;;29.00;19.30;;;26.40;30.00;;;;;;5068725;28;20416;-77
2022/03/28 10:34:53;;;;;;;22.10;15.77;;;26.60;29.00;;;;;;5068237;28;20497;-77
2022/03/28 10:37:39;;;;;;;21.07;15.63;;;26.20;29.90;;;;;;5068084;28;21003;-76
2022/03/28 10:40:27;;;;;;;23.83;15.33;;;26.90;29.90;;;;;;5051403;28;20800;-78
2022/03/28 10:43:13;;;;;;;19.97;14.60;;;26.70;29.40;;;;;;5070281;28;20428;-77
2022/03/28 10:45:47;;;;;;;19.53;15.23;;;26.90;29.20;;;;;;5067677;28;20502;-77
2022/03/28 10:48:13;;;;;;;22.03;15.53;;;27.00;29.00;;;;;;5068862;28;20512;-78
2022/03/28 10:50:45;;;;;;;21.83;15.67;;;26.70;29.00;;;;;;5069890;28;20523;-78
2022/03/28 10:53:29;;;;;;;23.20;16.00;;;26.50;29.20;;;;;;5068860;28;20605;-78
2022/03/28 10:56:04;;;;;;;25.27;16.23;;;26.70;27.70;;;;;;5068726;28;20956;-78
2022/03/28 10:58:35;;;;;;;18.23;13.73;;;26.90;28.20;;;;;;5070030;28;20435;-77
2022/03/28 11:01:12;;;;;;;21.63;14.83;;;26.90;26.90;;;;;;5069867;28;20472;-78
2022/03/28 11:03:50;;;;;;;21.40;16.00;;;27.10;26.30;;;;;;5069202;28;20465;-77
2022/03/28 11:06:18;;;;;;;18.00;14.00;;;27.10;27.20;;;;;;5068702;28;20412;-78
2022/03/28 11:08:57;;;;;;;23.70;13.13;;;27.40;27.70;;;;;;5067848;28;20553;-77
2022/03/28 11:11:31;;;;;;;22.70;13.97;;;27.20;27.10;;;;;;5067193;28;20472;-78
2022/03/28 11:14:04;;;;;;;18.23;12.80;;;27.50;26.70;;;;;;5065846;28;20918;-77
2022/03/28 11:16:52;;;;;;;20.73;14.60;;;27.40;26.50;;;;;;5065631;28;20489;-77
2022/03/28 11:19:34;;;;;;;21.47;14.43;;;27.60;26.80;;;;;;5067752;28;20417;-76
2022/03/28 11:22:03;;;;;;;15.17;12.33;;;27.80;25.30;;;;;;5067394;28;20425;-77
2022/03/28 11:24:58;;;;;;;18.10;14.40;;;27.80;27.20;;;;;;5070437;28;20483;-76
2022/03/28 11:27:37;;;;;;;19.63;12.20;;;27.90;26.90;;;;;;5056390;28;20448;-77
2022/03/28 11:30:11;;;;;;;18.30;14.10;;;27.80;26.00;;;;;;5067337;28;20501;-76
2022/03/28 11:32:38;;;;;;;21.33;12.20;;;28.00;24.50;;;;;;5067587;28;20424;-76
2022/03/28 11:35:05;;;;;;;13.03;10.63;;;28.10;25.30;;;;;;5067282;28;20424;-76
2022/03/28 11:37:31;;;;;;;20.23;11.40;;;28.10;23.10;;;;;;5067530;28;20420;-76
2022/03/28 11:40:07;;;;;;;15.70;9.30;;;28.00;21.00;;;;;;5068191;28;20449;-76
2022/03/28 11:42:34;;;;;;;13.73;10.17;;;27.90;21.00;;;;;;5067628;28;20798;-76
2022/03/28 11:45:09;;;;;;;15.20;10.20;;;28.10;20.40;;;;;;5065995;28;21332;-76
2022/03/28 11:47:36;;;;;;;16.80;11.70;;;28.00;20.90;;;;;;5067845;28;20901;-77
2022/03/28 11:50:03;;;;;;;22.30;12.50;;;27.90;21.30;;;;;;5069262;28;20441;-77
2022/03/28 11:52:29;;;;;;;17.47;12.77;;;28.10;22.10;;;;;;5071448;28;20416;-77
2022/03/28 11:54:57;;;;;;;15.53;10.80;;;28.30;22.80;;;;;;5071572;28;20425;-77
2022/03/28 12:00:15;;;;;;;16.60;11.60;;;27.90;21.50;;;;;;5071198;28;20545;-78
2022/03/28 12:02:56;;;;;;;15.93;11.63;;;27.80;21.70;;;;;;5071240;28;20771;-75
2022/03/28 12:05:28;;;;;;;14.37;11.47;;;27.80;21.90;;;;;;5070617;28;20474;-76
2022/03/28 12:07:55;;;;;;;16.40;11.40;;;27.60;21.50;;;;;;5071678;28;20432;-78
2022/03/28 12:10:28;;;;;;;18.47;10.57;;;27.70;22.20;;;;;;5069577;28;20794;-76
2022/03/28 12:12:58;;;;;;;15.90;11.63;;;27.50;22.70;;;;;;5069407;28;20433;-75
2022/03/28 12:15:30;;;;;;;20.90;12.97;;;27.80;22.00;;;;;;5072017;28;20422;-76
2022/03/28 12:17:59;;;;;;;14.93;11.90;;;27.90;22.80;;;;;;5068755;28;20557;-76
2022/03/28 12:21:02;;;;;;;21.63;13.03;;;27.90;22.80;;;;;;5070834;28;20445;-76
2022/03/28 12:23:29;;;;;;;30.93;14.07;;;27.80;22.30;;;;;;5064184;28;20433;-77
2022/03/28 12:26:00;;;;;;;23.70;14.13;;;27.80;21.40;;;;;;5071543;28;20510;-76
2022/03/28 12:28:43;;;;;;;18.83;13.63;;;27.70;21.70;;;;;;5070939;28;20433;-76
2022/03/28 12:33:47;;;;;;;23.80;13.40;;;27.20;23.60;;;;;;5031584;28;20503;-75
2022/03/28 12:36:28;;;;;;;16.17;13.10;;;27.20;22.30;;;;;;5016120;28;20423;-76
2022/03/28 12:39:11;;;;;;;16.50;12.23;;;27.10;21.70;;;;;;5016099;28;20909;-76
2022/03/28 12:41:44;;;;;;;17.50;13.00;;;27.30;23.00;;;;;;5030168;28;20484;-74
2022/03/28 12:44:26;;;;;;;17.20;11.90;;;27.40;22.10;;;;;;5028634;28;20463;-74